Time;durP1;ratioP1;P1;durP2;ratioP2;P2;SDS_P1;SDS_P2;PMS_P1;PMS_P2;Temp;Humidity;BMP_temperature;BMP_pressure;BME280_temperature;BME280_humidity;BME280_pressure;Samples;Min_cycle;Max_cycle;Signal;HPM_P1;HPM_P2
2023/07/22 00:02:22;;;;;;;4.38;3.97;;;21.10;99.90;;;;;;5091570;28;20210;-73
2023/07/22 00:04:49;;;;;;;3.80;3.50;;;21.10;99.90;;;;;;5091720;28;20201;-73
2023/07/22 00:07:17;;;;;;;4.75;3.28;;;21.10;99.90;;;;;;5091940;28;20286;-73
2023/07/22 00:09:44;;;;;;;3.38;3.08;;;21.10;99.90;;;;;;5091792;28;20233;-74
2023/07/22 00:12:11;;;;;;;4.22;3.45;;;21.20;99.90;;;;;;5081805;28;20242;-74
2023/07/22 00:14:40;;;;;;;3.65;3.35;;;21.10;99.90;;;;;;5087890;28;20245;-73
2023/07/22 00:17:09;;;;;;;4.72;3.05;;;21.10;99.90;;;;;;5091813;28;20206;-73
2023/07/22 00:19:36;;;;;;;3.17;2.92;;;21.00;99.90;;;;;;5084518;28;20284;-73
2023/07/22 00:22:04;;;;;;;3.67;3.38;;;21.00;99.90;;;;;;5069926;28;20656;-74
2023/07/22 00:24:31;;;;;;;5.22;3.78;;;21.10;99.90;;;;;;5071318;28;20224;-73
2023/07/22 00:26:58;;;;;;;2.85;2.65;;;21.00;99.90;;;;;;5070831;28;20206;-74
2023/07/22 00:29:25;;;;;;;3.67;3.38;;;21.00;99.90;;;;;;5070839;28;20242;-74
2023/07/22 00:31:52;;;;;;;4.30;3.72;;;21.00;99.90;;;;;;5070574;28;20682;-73
2023/07/22 00:34:20;;;;;;;4.05;3.22;;;21.10;99.90;;;;;;5071200;28;20270;-73
2023/07/22 00:36:47;;;;;;;3.53;3.22;;;21.00;99.90;;;;;;5070519;28;20753;-73
2023/07/22 00:39:14;;;;;;;4.32;3.58;;;21.00;99.90;;;;;;5071028;28;20205;-73
2023/07/22 00:41:44;;;;;;;3.17;2.88;;;21.00;99.90;;;;;;5071185;28;20214;-73
2023/07/22 00:44:11;;;;;;;3.05;2.83;;;21.00;99.90;;;;;;5071216;28;20213;-73
2023/07/22 00:46:38;;;;;;;3.47;3.17;;;20.90;99.90;;;;;;5071456;28;20221;-74
2023/07/22 00:49:07;;;;;;;2.95;2.72;;;20.90;99.90;;;;;;5070345;28;20719;-73
2023/07/22 00:51:35;;;;;;;3.33;3.03;;;20.90;99.90;;;;;;5070863;28;20228;-73
2023/07/22 00:54:03;;;;;;;4.28;3.88;;;20.90;99.90;;;;;;5070002;28;20257;-74
2023/07/22 00:56:31;;;;;;;6.30;3.10;;;20.80;99.90;;;;;;5070993;28;20206;-73
2023/07/22 00:58:59;;;;;;;3.05;2.80;;;20.80;99.90;;;;;;5069846;28;20330;-73
2023/07/22 01:01:26;;;;;;;3.60;3.05;;;20.80;99.90;;;;;;5070801;28;20295;-74
2023/07/22 01:03:53;;;;;;;4.07;3.20;;;20.80;99.90;;;;;;5070198;28;20253;-73
2023/07/22 01:06:20;;;;;;;4.28;3.13;;;20.80;99.90;;;;;;5070652;28;20233;-73
2023/07/22 01:08:49;;;;;;;4.47;3.25;;;20.70;99.90;;;;;;5070531;28;20267;-73
2023/07/22 01:11:16;;;;;;;4.88;3.40;;;20.70;99.90;;;;;;5070313;28;20238;-73
2023/07/22 01:13:43;;;;;;;3.35;3.05;;;20.70;99.90;;;;;;5070594;28;20326;-73
2023/07/22 01:16:10;;;;;;;3.65;3.35;;;20.80;99.90;;;;;;5070623;28;20230;-73
2023/07/22 01:18:38;;;;;;;3.80;3.47;;;20.70;99.90;;;;;;5070785;28;20641;-73
2023/07/22 01:21:08;;;;;;;3.60;2.70;;;20.80;99.90;;;;;;5069891;28;20237;-73
2023/07/22 01:23:36;;;;;;;6.38;3.45;;;20.70;99.90;;;;;;5070773;28;20210;-73
2023/07/22 01:26:04;;;;;;;3.10;2.90;;;20.70;99.90;;;;;;5070085;28;20233;-73
2023/07/22 01:28:31;;;;;;;3.95;2.75;;;20.70;99.90;;;;;;5069966;28;20795;-73
2023/07/22 01:30:58;;;;;;;2.92;2.65;;;20.70;99.90;;;;;;5070079;28;20248;-74
2023/07/22 01:33:24;;;;;;;5.25;3.25;;;20.70;99.90;;;;;;5070191;28;20225;-73
2023/07/22 01:35:51;;;;;;;3.33;2.97;;;20.70;99.90;;;;;;5069990;28;20614;-74
2023/07/22 01:38:19;;;;;;;3.30;3.00;;;20.70;99.90;;;;;;5070118;28;20268;-74
2023/07/22 01:40:47;;;;;;;3.00;2.75;;;20.60;99.90;;;;;;5069935;28;20674;-74
2023/07/22 01:43:14;;;;;;;3.08;2.78;;;20.60;99.90;;;;;;5069900;28;20236;-73
2023/07/22 01:45:42;;;;;;;2.65;2.45;;;20.60;99.90;;;;;;5070703;28;20245;-73
2023/07/22 01:48:09;;;;;;;3.20;2.90;;;20.60;99.90;;;;;;5070346;28;20202;-75
2023/07/22 01:50:36;;;;;;;3.50;2.65;;;20.50;99.90;;;;;;5070298;28;20235;-73
2023/07/22 01:53:03;;;;;;;2.88;2.67;;;20.50;99.90;;;;;;5069727;28;20233;-73
2023/07/22 01:55:32;;;;;;;2.92;2.63;;;20.30;99.90;;;;;;5070221;28;20201;-74
2023/07/22 01:58:00;;;;;;;3.20;2.90;;;20.10;99.90;;;;;;5069663;28;20292;-73
2023/07/22 02:00:27;;;;;;;4.63;3.25;;;20.20;99.90;;;;;;5070074;28;20234;-73
2023/07/22 02:02:54;;;;;;;3.25;2.90;;;20.10;99.90;;;;;;5069792;28;20248;-75
2023/07/22 02:05:21;;;;;;;5.68;3.63;;;20.10;99.90;;;;;;5069810;28;20237;-74
2023/07/22 02:07:47;;;;;;;4.10;2.65;;;20.10;99.90;;;;;;5069893;28;20210;-73
2023/07/22 02:10:14;;;;;;;3.60;2.90;;;20.10;99.90;;;;;;5070181;28;20233;-73
2023/07/22 02:12:41;;;;;;;3.65;3.15;;;20.10;99.90;;;;;;5073775;28;20662;-73
2023/07/22 02:15:11;;;;;;;3.80;2.83;;;20.10;99.90;;;;;;5073599;28;20206;-73
2023/07/22 02:17:38;;;;;;;3.47;2.63;;;20.10;99.90;;;;;;5074129;28;20234;-74
2023/07/22 02:20:08;;;;;;;3.15;2.72;;;20.10;99.90;;;;;;5073417;28;20249;-73
2023/07/22 02:22:35;;;;;;;2.80;2.60;;;20.00;99.90;;;;;;5073582;28;20293;-73
2023/07/22 02:25:03;;;;;;;3.42;2.88;;;20.00;99.90;;;;;;5073343;28;20332;-73
2023/07/22 02:27:30;;;;;;;4.03;2.33;;;20.00;99.90;;;;;;5072905;28;20214;-73
2023/07/22 02:29:57;;;;;;;3.10;2.80;;;20.00;99.90;;;;;;5072968;28;20669;-73
2023/07/22 02:32:25;;;;;;;3.40;2.83;;;19.90;99.90;;;;;;5073756;28;20246;-74
2023/07/22 02:34:52;;;;;;;4.18;2.67;;;19.90;99.90;;;;;;5072900;28;20277;-73
2023/07/22 02:37:19;;;;;;;4.25;2.70;;;19.90;99.90;;;;;;5073391;28;20720;-73
2023/07/22 02:39:45;;;;;;;3.75;3.10;;;19.80;99.90;;;;;;5072855;28;20237;-73
2023/07/22 02:42:12;;;;;;;3.20;2.90;;;19.90;99.90;;;;;;5073288;28;20244;-73
2023/07/22 02:44:39;;;;;;;3.65;2.72;;;19.90;99.90;;;;;;5073631;28;20731;-73
2023/07/22 02:47:06;;;;;;;3.33;3.03;;;19.80;99.90;;;;;;5072800;28;20229;-73
2023/07/22 02:49:34;;;;;;;3.60;3.28;;;19.80;99.90;;;;;;5073497;28;20241;-73
2023/07/22 02:52:01;;;;;;;2.72;2.45;;;19.80;99.90;;;;;;5072673;28;20217;-74
2023/07/22 02:54:28;;;;;;;4.70;3.08;;;19.80;99.90;;;;;;5072813;28;20264;-75
2023/07/22 02:56:55;;;;;;;3.90;2.47;;;19.80;99.90;;;;;;5072374;28;20627;-73
2023/07/22 02:59:22;;;;;;;3.47;3.13;;;19.80;99.90;;;;;;5073331;28;20296;-73
2023/07/22 03:01:49;;;;;;;3.13;2.60;;;19.70;99.90;;;;;;5072631;28;20246;-73
2023/07/22 03:04:16;;;;;;;2.67;2.47;;;19.80;99.90;;;;;;5073004;28;20259;-73
2023/07/22 03:06:44;;;;;;;3.22;2.88;;;19.80;99.90;;;;;;5072991;28;20238;-73
2023/07/22 03:09:11;;;;;;;3.25;2.70;;;19.80;99.90;;;;;;5072812;28;20206;-73
2023/07/22 03:11:38;;;;;;;2.83;2.20;;;19.60;99.90;;;;;;5073417;28;20241;-73
2023/07/22 03:14:05;;;;;;;2.50;2.30;;;19.60;99.90;;;;;;5072145;28;20748;-73
2023/07/22 03:16:32;;;;;;;3.38;3.08;;;19.70;99.90;;;;;;5072883;28;20226;-73
2023/07/22 03:18:59;;;;;;;3.10;2.35;;;19.70;99.90;;;;;;5072358;28;20210;-73
2023/07/22 03:21:26;;;;;;;2.63;2.42;;;19.60;99.90;;;;;;5072365;28;20209;-73
2023/07/22 03:23:54;;;;;;;2.65;2.45;;;19.60;99.90;;;;;;5071863;28;20264;-73
2023/07/22 03:26:21;;;;;;;2.58;2.38;;;19.50;99.90;;;;;;5059077;28;20260;-73
2023/07/22 03:28:48;;;;;;;3.03;2.78;;;19.50;99.90;;;;;;5071870;28;20661;-73
2023/07/22 03:31:15;;;;;;;2.97;1.92;;;19.50;99.90;;;;;;5072443;28;20209;-73
2023/07/22 03:33:45;;;;;;;4.15;2.85;;;19.40;99.90;;;;;;5072656;28;20257;-74
2023/07/22 03:36:13;;;;;;;2.78;2.10;;;19.40;99.90;;;;;;5072730;28;20206;-75
2023/07/22 03:38:40;;;;;;;3.20;2.15;;;19.30;99.90;;;;;;5072386;28;20581;-74
2023/07/22 03:41:08;;;;;;;3.58;3.13;;;19.30;99.90;;;;;;5072350;28;20244;-74
2023/07/22 03:43:35;;;;;;;2.65;2.38;;;19.50;99.90;;;;;;5072151;28;20249;-74
2023/07/22 03:46:02;;;;;;;2.83;2.63;;;19.50;99.90;;;;;;5071826;28;20589;-74
2023/07/22 03:48:29;;;;;;;2.53;2.30;;;19.50;99.90;;;;;;5072106;28;20302;-74
2023/07/22 03:50:56;;;;;;;3.30;3.00;;;19.40;99.90;;;;;;5071677;28;20238;-73
2023/07/22 03:53:23;;;;;;;2.97;2.45;;;19.40;99.90;;;;;;5071676;28;20241;-73
2023/07/22 03:55:50;;;;;;;2.13;1.92;;;19.40;99.90;;;;;;5071718;28;20289;-74
2023/07/22 03:58:18;;;;;;;2.55;2.35;;;19.30;99.90;;;;;;5071958;28;20660;-74
2023/07/22 04:00:49;;;;;;;5.03;2.42;;;19.30;99.90;;;;;;5071504;28;20598;-74
2023/07/22 04:03:16;;;;;;;3.33;2.38;;;19.30;99.90;;;;;;5071807;28;20234;-74
2023/07/22 04:05:43;;;;;;;3.15;2.20;;;19.20;99.90;;;;;;5071492;28;20203;-74
2023/07/22 04:08:10;;;;;;;2.83;2.63;;;19.30;99.90;;;;;;5072049;28;20210;-74
2023/07/22 04:10:37;;;;;;;3.35;2.45;;;19.30;99.90;;;;;;5071831;28;20584;-74
2023/07/22 04:13:04;;;;;;;2.92;2.72;;;19.30;99.90;;;;;;5071393;28;20210;-74
2023/07/22 04:15:32;;;;;;;3.17;2.58;;;19.30;99.90;;;;;;5071400;28;20265;-73
2023/07/22 04:17:59;;;;;;;4.13;3.45;;;19.30;99.90;;;;;;5071070;28;20727;-73
2023/07/22 04:20:26;;;;;;;2.58;2.38;;;19.20;99.90;;;;;;5071417;28;20238;-74
2023/07/22 04:22:53;;;;;;;3.17;2.65;;;19.10;99.90;;;;;;5070954;28;20298;-75
2023/07/22 04:25:20;;;;;;;3.65;2.28;;;19.10;99.90;;;;;;5071511;28;20565;-76
2023/07/22 04:27:47;;;;;;;4.80;3.08;;;19.10;99.90;;;;;;5070706;28;20216;-74
2023/07/22 04:30:20;;;;;;;2.53;2.33;;;19.00;99.90;;;;;;5071315;28;20263;-74
2023/07/22 04:32:49;;;;;;;2.97;2.75;;;19.00;99.90;;;;;;5070655;28;20213;-75
2023/07/22 04:35:17;;;;;;;3.50;2.70;;;19.00;99.90;;;;;;5070759;28;20324;-74
2023/07/22 04:37:44;;;;;;;4.93;2.85;;;19.00;99.90;;;;;;5071136;28;20214;-73
2023/07/22 04:40:15;;;;;;;3.33;2.38;;;18.90;99.90;;;;;;5071208;28;20252;-74
2023/07/22 04:42:42;;;;;;;3.17;2.92;;;19.00;99.90;;;;;;5071081;28;20289;-74
2023/07/22 04:45:11;;;;;;;2.67;2.47;;;19.00;99.90;;;;;;5071101;28;20283;-73
2023/07/22 04:47:38;;;;;;;2.78;2.58;;;19.10;99.90;;;;;;5071693;28;20214;-74
2023/07/22 04:50:09;;;;;;;2.50;2.30;;;19.10;99.90;;;;;;5070622;28;20214;-75
2023/07/22 04:52:36;;;;;;;2.35;2.10;;;19.00;99.90;;;;;;5070642;28;20284;-76
2023/07/22 04:55:08;;;;;;;2.92;2.58;;;19.00;99.90;;;;;;5070412;28;20269;-73
2023/07/22 04:57:35;;;;;;;3.28;2.90;;;19.00;99.90;;;;;;5070483;28;20198;-74
2023/07/22 05:00:04;;;;;;;2.83;2.58;;;19.00;99.90;;;;;;5070243;28;20751;-74
2023/07/22 05:02:31;;;;;;;2.90;2.58;;;19.00;99.90;;;;;;5070710;28;20609;-75
2023/07/22 05:04:58;;;;;;;2.45;2.25;;;19.10;99.90;;;;;;5070280;28;20684;-75
2023/07/22 05:07:26;;;;;;;2.47;2.28;;;19.10;99.90;;;;;;5070559;28;20217;-73
2023/07/22 05:09:53;;;;;;;2.58;2.35;;;19.20;99.90;;;;;;5070332;28;20598;-74
2023/07/22 05:12:20;;;;;;;3.30;2.38;;;19.30;99.90;;;;;;5070318;28;20242;-73
2023/07/22 05:14:47;;;;;;;5.38;2.60;;;19.40;99.90;;;;;;5070399;28;20265;-74
2023/07/22 05:17:14;;;;;;;2.90;2.70;;;19.50;99.90;;;;;;5070634;28;20275;-73
2023/07/22 05:19:41;;;;;;;2.47;2.28;;;19.50;99.90;;;;;;5070457;28;20263;-74
2023/07/22 05:22:08;;;;;;;2.78;2.10;;;19.50;99.90;;;;;;5070786;28;20649;-74
2023/07/22 05:24:36;;;;;;;4.20;2.63;;;19.50;99.90;;;;;;5070384;28;20233;-74
2023/07/22 05:27:03;;;;;;;2.50;2.30;;;19.60;99.90;;;;;;5070360;28;20210;-74
2023/07/22 05:29:30;;;;;;;4.22;2.58;;;19.60;99.90;;;;;;5070040;28;20588;-74
2023/07/22 05:31:57;;;;;;;4.57;2.10;;;19.60;99.90;;;;;;5070251;28;20234;-75
2023/07/22 05:34:24;;;;;;;2.80;2.30;;;19.70;99.90;;;;;;5070090;28;20268;-75
2023/07/22 05:36:51;;;;;;;3.47;2.83;;;19.70;99.90;;;;;;5069876;28;20238;-76
2023/07/22 05:39:18;;;;;;;2.55;2.25;;;19.70;99.90;;;;;;5070263;28;20206;-75
2023/07/22 05:41:46;;;;;;;2.75;2.55;;;19.80;99.90;;;;;;5069846;28;20213;-75
2023/07/22 05:44:13;;;;;;;2.13;1.80;;;19.80;99.90;;;;;;5070585;28;20214;-75
2023/07/22 05:46:40;;;;;;;2.92;2.38;;;19.80;99.90;;;;;;5074652;28;20237;-75
2023/07/22 05:49:07;;;;;;;2.65;2.30;;;19.80;99.90;;;;;;5074091;28;20205;-74
2023/07/22 05:51:34;;;;;;;2.58;2.38;;;19.80;99.90;;;;;;5073904;28;20216;-75
2023/07/22 05:54:01;;;;;;;2.85;2.58;;;19.80;99.90;;;;;;5073978;28;20240;-75
2023/07/22 05:56:28;;;;;;;4.47;2.75;;;19.80;99.90;;;;;;5073786;28;20238;-74
2023/07/22 05:58:56;;;;;;;2.70;2.50;;;19.90;99.90;;;;;;5071838;28;20222;-74
2023/07/22 06:01:24;;;;;;;3.05;2.70;;;20.10;99.90;;;;;;5072263;28;20237;-74
2023/07/22 06:03:51;;;;;;;2.65;2.45;;;20.20;99.90;;;;;;5071483;28;20240;-75
2023/07/22 06:06:18;;;;;;;3.22;2.40;;;20.30;99.90;;;;;;5072266;28;20693;-74
2023/07/22 06:08:45;;;;;;;3.63;2.60;;;20.30;99.90;;;;;;5071779;28;20241;-73
2023/07/22 06:11:12;;;;;;;2.42;2.22;;;20.30;99.90;;;;;;5073073;28;20242;-73
2023/07/22 06:13:39;;;;;;;3.67;2.22;;;20.20;99.90;;;;;;5074327;28;20222;-74
2023/07/22 06:16:07;;;;;;;3.80;2.22;;;20.20;99.90;;;;;;5073185;28;20265;-75
2023/07/22 06:18:34;;;;;;;2.10;1.90;;;20.30;99.90;;;;;;5073526;28;20651;-73
2023/07/22 06:21:01;;;;;;;2.55;1.83;;;20.40;99.90;;;;;;5073281;28;20293;-75
2023/07/22 06:23:28;;;;;;;2.75;2.22;;;20.50;99.90;;;;;;5073999;28;20242;-75
2023/07/22 06:25:54;;;;;;;3.20;2.03;;;20.50;99.90;;;;;;5073007;28;20237;-74
2023/07/22 06:28:21;;;;;;;4.13;2.58;;;20.60;99.90;;;;;;5073300;28;20713;-73
2023/07/22 06:30:48;;;;;;;2.00;1.90;;;20.50;99.90;;;;;;5073314;28;20251;-74
2023/07/22 06:33:17;;;;;;;2.28;2.10;;;20.50;99.90;;;;;;5073237;28;20234;-75
2023/07/22 06:35:44;;;;;;;3.13;2.05;;;20.70;99.90;;;;;;5073181;28;20240;-74
2023/07/22 06:38:10;;;;;;;2.38;1.65;;;20.70;99.90;;;;;;5073661;28;20202;-74
2023/07/22 06:40:37;;;;;;;4.03;2.47;;;20.70;99.90;;;;;;5073650;28;20234;-74
2023/07/22 06:43:05;;;;;;;3.97;2.13;;;20.90;99.90;;;;;;5073128;28;20210;-74
2023/07/22 06:45:32;;;;;;;3.25;2.35;;;21.00;99.90;;;;;;5073341;28;20767;-75
2023/07/22 06:47:59;;;;;;;3.30;1.73;;;21.10;99.90;;;;;;5072621;28;20263;-75
2023/07/22 06:50:28;;;;;;;3.35;1.90;;;21.30;99.90;;;;;;5072881;28;20203;-74
2023/07/22 06:52:54;;;;;;;2.92;1.70;;;21.30;99.90;;;;;;5072803;28;20643;-74
2023/07/22 06:55:21;;;;;;;2.40;2.20;;;21.40;99.90;;;;;;5073019;28;20268;-75
2023/07/22 06:57:49;;;;;;;2.17;1.98;;;21.40;99.90;;;;;;5072014;28;20242;-74
2023/07/22 07:00:16;;;;;;;2.67;2.47;;;21.50;99.90;;;;;;5072956;28;20249;-74
2023/07/22 07:02:43;;;;;;;3.92;2.15;;;21.50;99.90;;;;;;5072802;28;20248;-75
2023/07/22 07:05:10;;;;;;;2.40;2.20;;;21.60;99.90;;;;;;5073219;28;20210;-75
2023/07/22 07:07:39;;;;;;;2.03;1.83;;;21.70;99.90;;;;;;5059454;28;20202;-74
2023/07/22 07:10:07;;;;;;;2.40;2.08;;;21.90;99.90;;;;;;5072755;28;20237;-75
2023/07/22 07:12:34;;;;;;;3.90;2.55;;;22.00;99.90;;;;;;5072728;28;20287;-75
2023/07/22 07:15:01;;;;;;;2.92;2.38;;;22.20;99.90;;;;;;5072178;28;20721;-76
2023/07/22 07:17:28;;;;;;;4.00;2.30;;;22.20;99.90;;;;;;5072485;28;20241;-75
2023/07/22 07:19:55;;;;;;;4.65;2.40;;;22.30;99.90;;;;;;5072343;28;20210;-75
2023/07/22 07:22:22;;;;;;;2.45;2.25;;;22.20;99.90;;;;;;5072486;28;21041;-75
2023/07/22 07:24:50;;;;;;;2.90;2.30;;;22.20;99.90;;;;;;5072409;28;20228;-75
2023/07/22 07:27:17;;;;;;;1.98;1.75;;;22.30;99.90;;;;;;5072485;28;20234;-75
2023/07/22 07:29:44;;;;;;;2.47;2.28;;;22.20;99.90;;;;;;5067833;28;20260;-75
2023/07/22 07:32:11;;;;;;;2.35;2.15;;;22.30;99.90;;;;;;5073026;28;20206;-75
2023/07/22 07:34:38;;;;;;;3.88;2.42;;;22.20;99.90;;;;;;5072690;28;20685;-76
2023/07/22 07:37:05;;;;;;;2.97;2.67;;;22.30;99.90;;;;;;5072181;28;20210;-75
2023/07/22 07:39:32;;;;;;;2.05;1.95;;;22.40;99.90;;;;;;5072301;28;20245;-75
2023/07/22 07:42:01;;;;;;;2.13;2.03;;;22.60;99.90;;;;;;5071784;28;20202;-76
2023/07/22 07:44:27;;;;;;;1.98;1.88;;;22.80;99.90;;;;;;5071927;28;20230;-76
2023/07/22 07:46:54;;;;;;;4.88;2.08;;;23.00;99.90;;;;;;5071495;28;20241;-76
2023/07/22 07:49:21;;;;;;;3.65;2.83;;;22.90;99.90;;;;;;5072357;28;20202;-75
2023/07/22 07:51:48;;;;;;;4.80;2.47;;;22.80;99.90;;;;;;5071487;28;20263;-75
2023/07/22 07:54:16;;;;;;;3.25;3.05;;;22.80;99.90;;;;;;5072014;28;20640;-75
2023/07/22 07:56:42;;;;;;;4.18;2.35;;;22.70;99.90;;;;;;5071626;28;20265;-74
2023/07/22 07:59:11;;;;;;;2.17;1.92;;;22.90;99.90;;;;;;5072090;28;20654;-76
2023/07/22 08:01:41;;;;;;;2.58;2.30;;;23.40;99.90;;;;;;5072370;28;20242;-75
2023/07/22 08:04:08;;;;;;;1.75;1.65;;;23.50;99.90;;;;;;5071657;28;20210;-76
2023/07/22 08:06:37;;;;;;;2.55;2.35;;;23.50;99.90;;;;;;5071815;28;20238;-76
2023/07/22 08:09:05;;;;;;;2.28;2.10;;;23.60;99.90;;;;;;5070202;28;20267;-76
2023/07/22 08:11:32;;;;;;;4.15;2.78;;;23.50;99.90;;;;;;5071592;28;20206;-76
2023/07/22 08:13:59;;;;;;;1.90;1.80;;;23.40;99.90;;;;;;5070867;28;20735;-76
2023/07/22 08:16:27;;;;;;;1.98;1.60;;;23.50;99.90;;;;;;5071580;28;20287;-75
2023/07/22 08:18:54;;;;;;;2.42;2.22;;;23.70;99.90;;;;;;5071042;28;20584;-76
2023/07/22 08:21:21;;;;;;;3.20;2.20;;;23.70;99.90;;;;;;5071410;28;20206;-75
2023/07/22 08:23:48;;;;;;;2.30;2.10;;;23.80;99.90;;;;;;5070932;28;20237;-75
2023/07/22 08:26:17;;;;;;;1.98;1.88;;;23.90;99.90;;;;;;5071390;28;20234;-75
2023/07/22 08:28:44;;;;;;;2.83;2.50;;;23.90;99.90;;;;;;5070597;28;20233;-75
2023/07/22 08:31:11;;;;;;;2.53;1.90;;;24.30;99.90;;;;;;5071626;28;20244;-75
2023/07/22 08:33:40;;;;;;;2.70;2.50;;;24.40;99.90;;;;;;5071836;28;20209;-76
2023/07/22 08:36:07;;;;;;;3.03;2.83;;;24.20;99.90;;;;;;5070770;28;20233;-75
2023/07/22 08:38:33;;;;;;;2.40;2.20;;;24.10;99.90;;;;;;5071091;28;20226;-75
2023/07/22 08:41:00;;;;;;;2.05;1.88;;;23.70;99.90;;;;;;5070975;28;20251;-75
2023/07/22 08:43:29;;;;;;;2.90;2.30;;;23.90;99.90;;;;;;5070810;28;20267;-76
2023/07/22 08:46:00;;;;;;;2.17;2.08;;;24.20;99.90;;;;;;5070693;28;20213;-75
2023/07/22 08:48:30;;;;;;;2.22;1.98;;;24.10;99.90;;;;;;5070836;28;20705;-75
2023/07/22 08:51:04;;;;;;;2.00;1.88;;;24.20;99.90;;;;;;5070426;28;20245;-75
2023/07/22 08:53:33;;;;;;;2.90;2.60;;;24.40;99.90;;;;;;5070863;28;20213;-75
2023/07/22 08:56:00;;;;;;;4.57;2.33;;;24.70;99.90;;;;;;5070657;28;20328;-75
2023/07/22 08:58:28;;;;;;;4.20;3.17;;;25.10;99.90;;;;;;5070672;28;20240;-76
2023/07/22 09:00:55;;;;;;;2.60;2.40;;;25.60;99.90;;;;;;5070587;28;20210;-76
2023/07/22 09:03:23;;;;;;;2.97;2.78;;;25.50;99.90;;;;;;5070647;28;20210;-73
2023/07/22 09:05:50;;;;;;;4.55;2.30;;;25.30;99.90;;;;;;5070077;28;20242;-74
2023/07/22 09:08:18;;;;;;;2.90;2.70;;;25.20;99.90;;;;;;5070805;28;20252;-73
2023/07/22 09:10:45;;;;;;;2.80;2.60;;;25.90;99.90;;;;;;5070244;28;20214;-73
2023/07/22 09:13:15;;;;;;;2.20;2.03;;;25.30;99.90;;;;;;5070398;28;20214;-74
2023/07/22 09:15:42;;;;;;;3.78;2.72;;;25.40;99.90;;;;;;5070658;28;20257;-74
2023/07/22 09:18:09;;;;;;;2.53;2.28;;;25.50;99.90;;;;;;5070806;28;20210;-73
2023/07/22 09:20:36;;;;;;;2.35;2.15;;;25.30;99.90;;;;;;5070248;28;20202;-73
2023/07/22 09:23:03;;;;;;;3.45;2.45;;;25.50;99.90;;;;;;5070106;28;20241;-73
2023/07/22 09:25:31;;;;;;;2.60;2.40;;;26.30;99.90;;;;;;5070706;28;20254;-75
2023/07/22 09:28:01;;;;;;;2.92;2.60;;;27.10;99.90;;;;;;5069668;28;20206;-75
2023/07/22 09:30:29;;;;;;;2.25;2.13;;;28.50;99.90;;;;;;5070459;28;20210;-75
2023/07/22 09:32:58;;;;;;;2.30;2.10;;;30.50;99.90;;;;;;5070096;28;20296;-76
2023/07/22 09:35:27;;;;;;;4.25;2.30;;;33.60;99.90;;;;;;5070500;28;20265;-76
2023/07/22 09:37:54;;;;;;;2.78;2.58;;;33.30;99.90;;;;;;5070198;28;20209;-77
2023/07/22 09:40:23;;;;;;;3.67;2.70;;;32.60;99.90;;;;;;5070121;28;20302;-76
2023/07/22 09:42:53;;;;;;;2.53;1.98;;;34.60;99.90;;;;;;5069971;28;20636;-77
2023/07/22 09:45:22;;;;;;;2.58;2.17;;;35.40;99.90;;;;;;5070135;28;20236;-77
2023/07/22 09:47:52;;;;;;;4.22;2.97;;;35.90;99.90;;;;;;5070175;28;20262;-77
2023/07/22 09:50:22;;;;;;;3.10;2.80;;;37.00;99.90;;;;;;5070167;28;20233;-77
2023/07/22 09:52:50;;;;;;;2.00;1.90;;;37.20;99.90;;;;;;5069975;28;20583;-76
2023/07/22 09:55:18;;;;;;;2.40;2.20;;;36.50;99.90;;;;;;5069940;28;20241;-77
2023/07/22 09:57:47;;;;;;;2.55;2.28;;;38.50;99.90;;;;;;5069807;28;20287;-76
2023/07/22 10:00:18;;;;;;;2.42;2.22;;;39.60;99.90;;;;;;5069936;28;20689;-77
2023/07/22 10:02:45;;;;;;;2.80;2.33;;;39.60;99.90;;;;;;5069617;28;20216;-76
2023/07/22 10:05:15;;;;;;;2.60;1.95;;;39.00;99.90;;;;;;5070390;28;20205;-77
2023/07/22 10:07:48;;;;;;;2.08;1.90;;;40.40;99.90;;;;;;5070205;28;20206;-76
2023/07/22 10:10:17;;;;;;;2.83;2.00;;;39.60;99.90;;;;;;5069808;28;20252;-77
2023/07/22 10:12:44;;;;;;;2.42;1.88;;;39.70;99.90;;;;;;5055807;28;20201;-77
2023/07/22 10:15:13;;;;;;;5.47;2.60;;;40.80;99.90;;;;;;5070503;28;20237;-76
2023/07/22 10:17:41;;;;;;;2.85;1.75;;;41.50;99.90;;;;;;5069925;28;20740;-77
2023/07/22 10:20:14;;;;;;;2.05;1.95;;;38.60;99.90;;;;;;5069922;28;20249;-73
2023/07/22 10:22:42;;;;;;;1.70;1.48;;;37.70;99.90;;;;;;5070258;28;20216;-78
2023/07/22 10:25:11;;;;;;;2.00;1.83;;;38.20;99.90;;;;;;5070079;28;20233;-77
2023/07/22 10:27:39;;;;;;;2.30;1.98;;;38.00;99.90;;;;;;5069996;28;20248;-75
2023/07/22 10:30:08;;;;;;;2.40;2.00;;;39.10;99.90;;;;;;5069457;28;20229;-75
2023/07/22 10:32:37;;;;;;;1.90;1.55;;;36.80;99.90;;;;;;5071867;28;20436;-75
2023/07/22 10:35:09;;;;;;;2.85;1.90;;;33.40;99.90;;;;;;5073030;28;20869;-77
2023/07/22 10:37:37;;;;;;;2.65;1.88;;;30.90;99.90;;;;;;5073320;28;20276;-76
2023/07/22 10:40:19;;;;;;;3.72;2.13;;;29.90;99.90;;;;;;5072647;28;20202;-78
2023/07/22 10:42:54;;;;;;;2.05;1.60;;;29.40;99.90;;;;;;5073049;28;20214;-77
2023/07/22 10:45:29;;;;;;;1.85;1.75;;;29.10;99.90;;;;;;5073273;28;20609;-77
2023/07/22 10:48:04;;;;;;;3.42;1.98;;;28.60;99.90;;;;;;5073157;28;20236;-77
2023/07/22 10:50:43;;;;;;;2.35;2.15;;;28.40;99.90;;;;;;5073098;28;20233;-77
2023/07/22 10:53:14;;;;;;;3.03;2.58;;;27.90;99.90;;;;;;5073356;28;20670;-76
2023/07/22 10:56:13;;;;;;;2.53;1.75;;;28.00;99.90;;;;;;5073228;28;20238;-76
2023/07/22 10:59:03;;;;;;;3.70;2.08;;;27.70;99.90;;;;;;5073441;28;20206;-76
2023/07/22 11:01:38;;;;;;;2.38;2.05;;;27.70;99.90;;;;;;5072869;28;20662;-75
2023/07/22 11:04:10;;;;;;;2.40;2.20;;;27.70;99.90;;;;;;5072445;28;20259;-76
2023/07/22 11:06:39;;;;;;;2.20;1.98;;;27.60;99.90;;;;;;5072821;28;20206;-77
2023/07/22 11:09:06;;;;;;;2.58;2.15;;;27.40;99.90;;;;;;5072341;28;20216;-76
2023/07/22 11:11:38;;;;;;;2.95;2.65;;;27.40;99.90;;;;;;5073106;28;20213;-77
2023/07/22 11:14:15;;;;;;;2.30;2.10;;;27.10;99.90;;;;;;5072336;28;20210;-77
2023/07/22 11:16:44;;;;;;;2.85;2.30;;;26.90;99.90;;;;;;5072905;28;20229;-77
2023/07/22 11:19:11;;;;;;;2.30;2.10;;;27.50;99.90;;;;;;5072795;28;20210;-77
2023/07/22 11:21:39;;;;;;;2.70;2.50;;;27.70;99.90;;;;;;5073040;28;20245;-77
2023/07/22 11:24:08;;;;;;;2.30;2.17;;;27.80;99.90;;;;;;5071945;28;20242;-76
2023/07/22 11:26:35;;;;;;;3.20;2.88;;;27.30;99.90;;;;;;5072542;28;20584;-75
2023/07/22 11:29:02;;;;;;;3.30;2.53;;;27.20;99.90;;;;;;5071912;28;20245;-76
2023/07/22 11:31:33;;;;;;;4.05;2.67;;;27.50;99.90;;;;;;5072191;28;20206;-77
2023/07/22 11:34:00;;;;;;;3.88;3.10;;;27.80;99.90;;;;;;5072438;28;20213;-77
2023/07/22 11:36:27;;;;;;;3.38;2.40;;;28.00;99.90;;;;;;5071915;28;20226;-76
2023/07/22 11:39:02;;;;;;;2.95;2.40;;;27.80;99.90;;;;;;5072115;28;20207;-77
2023/07/22 11:41:29;;;;;;;3.25;3.03;;;27.90;99.90;;;;;;5072384;28;20244;-77
2023/07/22 11:43:58;;;;;;;3.63;2.70;;;27.50;99.90;;;;;;5071683;28;20253;-77
2023/07/22 11:46:25;;;;;;;3.28;2.90;;;27.50;99.90;;;;;;5072423;28;20216;-77
2023/07/22 11:48:52;;;;;;;2.45;2.25;;;27.50;99.90;;;;;;5071678;28;20238;-77
2023/07/22 11:51:21;;;;;;;3.53;2.60;;;27.60;99.90;;;;;;5071997;28;20242;-77
2023/07/22 11:53:49;;;;;;;4.93;2.85;;;27.20;99.90;;;;;;5071651;28;20249;-77
2023/07/22 11:56:22;;;;;;;2.90;2.70;;;27.30;99.90;;;;;;5071843;28;20705;-77
2023/07/22 11:58:53;;;;;;;3.13;2.38;;;27.40;99.90;;;;;;5071298;28;20256;-77
2023/07/22 12:01:21;;;;;;;3.13;2.63;;;27.50;99.90;;;;;;5072157;28;20237;-76
2023/07/22 12:03:48;;;;;;;3.05;2.72;;;27.90;99.90;;;;;;5071395;28;20201;-77
2023/07/22 12:06:16;;;;;;;2.70;2.17;;;28.10;99.90;;;;;;5071743;28;20237;-77
2023/07/22 12:08:48;;;;;;;2.97;2.53;;;28.00;99.90;;;;;;5071577;28;20233;-77
2023/07/22 12:11:19;;;;;;;2.63;2.42;;;27.90;99.90;;;;;;5071755;28;20298;-76
2023/07/22 12:13:50;;;;;;;2.85;2.55;;;27.80;99.90;;;;;;5071172;28;20293;-77
2023/07/22 12:16:23;;;;;;;2.90;2.55;;;27.40;99.90;;;;;;5071409;28;20249;-77
2023/07/22 12:18:50;;;;;;;4.50;2.20;;;27.60;99.90;;;;;;5071162;28;20206;-77
2023/07/22 12:21:17;;;;;;;16.67;3.03;;;28.00;99.90;;;;;;5071300;28;20203;-77
2023/07/22 12:23:44;;;;;;;3.22;2.10;;;28.00;99.90;;;;;;5070936;28;20241;-77
2023/07/22 12:26:11;;;;;;;2.97;2.08;;;28.00;99.90;;;;;;5071411;28;20712;-77
2023/07/22 12:28:38;;;;;;;2.65;2.45;;;27.90;99.90;;;;;;5071420;28;20253;-77
2023/07/22 12:31:06;;;;;;;4.72;2.50;;;27.70;99.90;;;;;;5071061;28;20242;-77
2023/07/22 12:33:33;;;;;;;2.92;2.72;;;28.00;99.90;;;;;;5071159;28;20206;-77
2023/07/22 12:36:00;;;;;;;3.00;2.72;;;28.30;99.90;;;;;;5070626;28;20677;-77
2023/07/22 12:38:27;;;;;;;3.15;2.85;;;28.50;99.90;;;;;;5071119;28;20237;-77
2023/07/22 12:40:54;;;;;;;2.10;2.00;;;28.60;99.90;;;;;;5071017;28;20252;-77
2023/07/22 12:43:21;;;;;;;2.65;2.45;;;28.30;99.90;;;;;;5071123;28;20245;-76
2023/07/22 12:45:48;;;;;;;3.83;2.95;;;28.40;99.90;;;;;;5070740;28;20210;-78
2023/07/22 12:48:17;;;;;;;2.72;2.53;;;28.20;99.90;;;;;;5070822;28;20245;-76
2023/07/22 12:50:44;;;;;;;5.20;2.58;;;28.50;99.90;;;;;;5070418;28;20242;-77
2023/07/22 12:53:11;;;;;;;2.70;2.50;;;28.50;99.90;;;;;;5071156;28;20629;-77